Pagrindinis puslapis
METAR-TAF:

METAR-TAF

Oro uostai :

Angado oro uostas

Udžda, Marokas

platuma: 34-47N, ilguma: 001-56W, Aukštis: 468 m

Dabartinis oras

Ataskaita buvo paskelbta 40 minutes, ne 21:00 UTC
Vėjas 2 kt nuo kintamojo kryptimis
Temperatūra 9°C
Drėgmė 93%
Slėgis 1019 hPa
Matomumas 10 km arba daugiau
Mažai debesys ne aukštis 3000 ft
Išsisklaidę debesys ne aukštis 23000 ft

METAR: GMFO 282100Z VRB02KT 9999 FEW030 SCT230 09/08 Q1019 NOSIG

Laikas: 22:40 (21:40 UTC)

Prognozė

Ataskaita buvo paskelbta 4 valandos ir 40 minutes, ne 17:00 UTC
Prognozė galioja nuo 28 metu 18 UTC su 29 metu 24 UTC
Vėjas 11 kt iš Šiaurės/Šiaurės Vakarų
Matomumas 10 km arba daugiau
Mažai debesys ne aukštis 5000 ft
Su prošvaistėmis ne aukštis 9000 ft
Laikinai
nuo 28 metu 20 UTC su 29 metu 08 UTC
Vėjas 4 kt iš Pietų/Pietvakarių

TAF: GMFO 281700Z 2818/2924 33011KT 9999 FEW050 BKN090 TEMPO 2820/2908 20004KT

Orai ataskaitas ir orų prognozės (METAR, TAF).

turimą stotys yra geltonos ir raudonos taškus žemėlapyje.

Perkelti pele per norėdami pamatyti stoties vardą.

Tada spustelėkite, norėdami matyti oro stebėjimo ir prognozės.

Norėdami pakeisti žemėlapį: spustelėkite ant žalios mygtukų su juodo kryžiaus žemyn,; žalią mygtuką su brūkšneliu, jei norite nutolinti; arba žalių rodyklių gretimoms žemėlapius.


METAR-TAF: